sensor_id;sensor_type;location;lat;lon;timestamp;temperature;humidity
7476;DHT22;3779;49.216;8.650;2022-11-15T00:00:38;20.90;45.40
7476;DHT22;3779;49.216;8.650;2022-11-15T00:03:43;20.90;46.60
7476;DHT22;3779;49.216;8.650;2022-11-15T00:06:47;20.90;46.20
7476;DHT22;3779;49.216;8.650;2022-11-15T00:09:52;20.90;46.40
7476;DHT22;3779;49.216;8.650;2022-11-15T00:12:56;21.00;46.70
7476;DHT22;3779;49.216;8.650;2022-11-15T00:16:01;21.10;46.30
7476;DHT22;3779;49.216;8.650;2022-11-15T00:19:05;21.10;46.00
7476;DHT22;3779;49.216;8.650;2022-11-15T00:22:10;21.10;46.10
7476;DHT22;3779;49.216;8.650;2022-11-15T00:25:14;21.00;45.30
7476;DHT22;3779;49.216;8.650;2022-11-15T00:28:19;20.90;46.30
7476;DHT22;3779;49.216;8.650;2022-11-15T00:31:23;21.00;46.60
7476;DHT22;3779;49.216;8.650;2022-11-15T00:34:27;21.00;46.60
7476;DHT22;3779;49.216;8.650;2022-11-15T00:37:32;21.00;46.30
7476;DHT22;3779;49.216;8.650;2022-11-15T00:40:36;21.10;46.80
7476;DHT22;3779;49.216;8.650;2022-11-15T00:43:41;21.10;46.30
7476;DHT22;3779;49.216;8.650;2022-11-15T00:46:47;21.10;46.20
7476;DHT22;3779;49.216;8.650;2022-11-15T00:49:51;21.20;46.40
7476;DHT22;3779;49.216;8.650;2022-11-15T00:52:56;21.10;46.20
7476;DHT22;3779;49.216;8.650;2022-11-15T00:56:00;21.10;46.30
7476;DHT22;3779;49.216;8.650;2022-11-15T00:59:05;21.10;46.00
7476;DHT22;3779;49.216;8.650;2022-11-15T01:02:09;21.10;46.50
7476;DHT22;3779;49.216;8.650;2022-11-15T01:05:13;21.10;46.20
7476;DHT22;3779;49.216;8.650;2022-11-15T01:08:18;20.90;45.40
7476;DHT22;3779;49.216;8.650;2022-11-15T01:11:23;20.90;46.40
7476;DHT22;3779;49.216;8.650;2022-11-15T01:14:27;20.80;45.60
7476;DHT22;3779;49.216;8.650;2022-11-15T01:17:32;20.80;47.40
7476;DHT22;3779;49.216;8.650;2022-11-15T01:20:42;20.90;46.70
7476;DHT22;3779;49.216;8.650;2022-11-15T01:23:47;21.10;46.90
7476;DHT22;3779;49.216;8.650;2022-11-15T01:26:52;21.10;46.00
7476;DHT22;3779;49.216;8.650;2022-11-15T01:29:56;21.10;46.30
7476;DHT22;3779;49.216;8.650;2022-11-15T01:33:01;21.20;46.70
7476;DHT22;3779;49.216;8.650;2022-11-15T01:36:07;21.20;46.10
7476;DHT22;3779;49.216;8.650;2022-11-15T01:39:11;21.20;46.00
7476;DHT22;3779;49.216;8.650;2022-11-15T01:42:16;21.10;45.50
7476;DHT22;3779;49.216;8.650;2022-11-15T01:45:20;21.10;46.10
7476;DHT22;3779;49.216;8.650;2022-11-15T01:48:33;21.20;45.90
7476;DHT22;3779;49.216;8.650;2022-11-15T01:51:38;21.10;45.00
7476;DHT22;3779;49.216;8.650;2022-11-15T01:54:43;21.00;45.70
7476;DHT22;3779;49.216;8.650;2022-11-15T01:57:54;21.10;46.00
7476;DHT22;3779;49.216;8.650;2022-11-15T02:00:59;21.10;45.80
7476;DHT22;3779;49.216;8.650;2022-11-15T02:04:20;21.10;45.50
7476;DHT22;3779;49.216;8.650;2022-11-15T02:07:28;21.10;45.80
7476;DHT22;3779;49.216;8.650;2022-11-15T02:10:33;21.10;45.40
7476;DHT22;3779;49.216;8.650;2022-11-15T02:13:38;21.10;45.10
7476;DHT22;3779;49.216;8.650;2022-11-15T02:21:07;21.10;46.20
7476;DHT22;3779;49.216;8.650;2022-11-15T02:27:28;20.90;45.60
7476;DHT22;3779;49.216;8.650;2022-11-15T02:30:44;20.90;45.80
7476;DHT22;3779;49.216;8.650;2022-11-15T02:37:45;21.00;45.70
7476;DHT22;3779;49.216;8.650;2022-11-15T02:40:59;21.00;45.90
7476;DHT22;3779;49.216;8.650;2022-11-15T02:44:17;21.00;45.00
7476;DHT22;3779;49.216;8.650;2022-11-15T02:47:23;21.00;45.80
7476;DHT22;3779;49.216;8.650;2022-11-15T02:50:30;21.00;45.70
7476;DHT22;3779;49.216;8.650;2022-11-15T02:53:36;21.00;45.40
7476;DHT22;3779;49.216;8.650;2022-11-15T02:56:42;21.00;45.30
7476;DHT22;3779;49.216;8.650;2022-11-15T03:00:01;21.00;45.40
7476;DHT22;3779;49.216;8.650;2022-11-15T03:03:14;21.00;45.60
7476;DHT22;3779;49.216;8.650;2022-11-15T03:13:26;20.90;45.70
7476;DHT22;3779;49.216;8.650;2022-11-15T03:17:04;20.90;46.60
7476;DHT22;3779;49.216;8.650;2022-11-15T03:20:15;20.90;45.40
7476;DHT22;3779;49.216;8.650;2022-11-15T03:23:21;20.90;45.40
7476;DHT22;3779;49.216;8.650;2022-11-15T03:26:26;20.90;45.70
7476;DHT22;3779;49.216;8.650;2022-11-15T03:29:36;20.80;44.50
7476;DHT22;3779;49.216;8.650;2022-11-15T03:32:46;20.80;45.90
7476;DHT22;3779;49.216;8.650;2022-11-15T03:35:52;20.80;45.80
7476;DHT22;3779;49.216;8.650;2022-11-15T03:39:00;20.90;45.90
7476;DHT22;3779;49.216;8.650;2022-11-15T03:42:29;20.90;45.80
7476;DHT22;3779;49.216;8.650;2022-11-15T03:45:46;20.90;46.10
7476;DHT22;3779;49.216;8.650;2022-11-15T03:48:54;20.90;46.40
7476;DHT22;3779;49.216;8.650;2022-11-15T03:52:02;21.00;46.10
7476;DHT22;3779;49.216;8.650;2022-11-15T03:55:10;21.00;46.10
7476;DHT22;3779;49.216;8.650;2022-11-15T03:58:15;21.00;45.40
7476;DHT22;3779;49.216;8.650;2022-11-15T04:01:19;20.90;46.10
7476;DHT22;3779;49.216;8.650;2022-11-15T04:04:24;21.00;46.30
7476;DHT22;3779;49.216;8.650;2022-11-15T04:07:28;21.10;46.30
7476;DHT22;3779;49.216;8.650;2022-11-15T04:10:33;21.10;46.30
7476;DHT22;3779;49.216;8.650;2022-11-15T04:13:37;20.90;45.90
7476;DHT22;3779;49.216;8.650;2022-11-15T04:16:41;20.90;46.80
7476;DHT22;3779;49.216;8.650;2022-11-15T04:19:46;20.90;46.80
7476;DHT22;3779;49.216;8.650;2022-11-15T04:23:11;21.00;47.00
7476;DHT22;3779;49.216;8.650;2022-11-15T04:26:35;21.00;47.00
7476;DHT22;3779;49.216;8.650;2022-11-15T04:29:39;21.10;46.70
7476;DHT22;3779;49.216;8.650;2022-11-15T04:32:44;21.00;46.40
7476;DHT22;3779;49.216;8.650;2022-11-15T04:35:48;20.90;46.40
7476;DHT22;3779;49.216;8.650;2022-11-15T04:39:12;20.80;47.30
7476;DHT22;3779;49.216;8.650;2022-11-15T04:42:16;20.90;47.50
7476;DHT22;3779;49.216;8.650;2022-11-15T04:45:21;21.00;47.30
7476;DHT22;3779;49.216;8.650;2022-11-15T04:48:25;21.00;46.80
7476;DHT22;3779;49.216;8.650;2022-11-15T04:51:29;21.10;47.00
7476;DHT22;3779;49.216;8.650;2022-11-15T04:54:33;21.00;47.00
7476;DHT22;3779;49.216;8.650;2022-11-15T04:57:38;21.10;47.50
7476;DHT22;3779;49.216;8.650;2022-11-15T05:00:42;21.10;46.90
7476;DHT22;3779;49.216;8.650;2022-11-15T05:03:47;21.10;46.80
7476;DHT22;3779;49.216;8.650;2022-11-15T05:07:10;21.10;46.80
7476;DHT22;3779;49.216;8.650;2022-11-15T05:10:16;21.00;46.70
7476;DHT22;3779;49.216;8.650;2022-11-15T05:13:21;21.00;47.10
7476;DHT22;3779;49.216;8.650;2022-11-15T05:16:26;21.10;47.40
7476;DHT22;3779;49.216;8.650;2022-11-15T05:19:30;21.10;47.00
7476;DHT22;3779;49.216;8.650;2022-11-15T05:22:34;21.00;47.40
7476;DHT22;3779;49.216;8.650;2022-11-15T05:25:39;21.00;47.50
7476;DHT22;3779;49.216;8.650;2022-11-15T05:28:43;21.00;47.10
7476;DHT22;3779;49.216;8.650;2022-11-15T05:31:48;21.10;47.40
7476;DHT22;3779;49.216;8.650;2022-11-15T05:34:52;21.10;47.00
7476;DHT22;3779;49.216;8.650;2022-11-15T05:37:56;21.10;47.40
7476;DHT22;3779;49.216;8.650;2022-11-15T05:41:02;21.10;47.00
7476;DHT22;3779;49.216;8.650;2022-11-15T05:44:10;21.10;47.00
7476;DHT22;3779;49.216;8.650;2022-11-15T05:47:19;21.10;47.00
7476;DHT22;3779;49.216;8.650;2022-11-15T05:50:24;21.10;47.40
7476;DHT22;3779;49.216;8.650;2022-11-15T05:53:29;21.00;46.90
7476;DHT22;3779;49.216;8.650;2022-11-15T05:56:34;21.00;46.80
7476;DHT22;3779;49.216;8.650;2022-11-15T05:59:39;21.10;46.90
7476;DHT22;3779;49.216;8.650;2022-11-15T06:02:44;21.10;46.90
7476;DHT22;3779;49.216;8.650;2022-11-15T06:05:49;21.10;47.00
7476;DHT22;3779;49.216;8.650;2022-11-15T06:08:54;21.10;46.90
7476;DHT22;3779;49.216;8.650;2022-11-15T06:11:58;21.10;46.80
7476;DHT22;3779;49.216;8.650;2022-11-15T06:15:02;20.80;45.60
7476;DHT22;3779;49.216;8.650;2022-11-15T06:18:06;21.00;46.80
7476;DHT22;3779;49.216;8.650;2022-11-15T06:21:11;21.00;46.80
7476;DHT22;3779;49.216;8.650;2022-11-15T06:24:15;21.00;46.50
7476;DHT22;3779;49.216;8.650;2022-11-15T06:27:20;20.90;45.40
7476;DHT22;3779;49.216;8.650;2022-11-15T06:30:25;20.90;46.90
7476;DHT22;3779;49.216;8.650;2022-11-15T06:33:30;21.00;46.60
7476;DHT22;3779;49.216;8.650;2022-11-15T06:36:35;21.00;45.70
7476;DHT22;3779;49.216;8.650;2022-11-15T06:39:40;20.80;45.60
7476;DHT22;3779;49.216;8.650;2022-11-15T06:42:45;20.90;46.70
7476;DHT22;3779;49.216;8.650;2022-11-15T06:45:49;21.00;46.30
7476;DHT22;3779;49.216;8.650;2022-11-15T06:48:53;21.00;46.80
7476;DHT22;3779;49.216;8.650;2022-11-15T06:51:57;21.00;45.80
7476;DHT22;3779;49.216;8.650;2022-11-15T06:55:02;21.10;46.40
7476;DHT22;3779;49.216;8.650;2022-11-15T06:58:06;21.10;46.20
7476;DHT22;3779;49.216;8.650;2022-11-15T07:01:12;21.10;46.50
7476;DHT22;3779;49.216;8.650;2022-11-15T07:04:16;21.00;46.00
7476;DHT22;3779;49.216;8.650;2022-11-15T07:07:20;21.00;46.00
7476;DHT22;3779;49.216;8.650;2022-11-15T07:10:26;21.00;46.00
7476;DHT22;3779;49.216;8.650;2022-11-15T07:13:32;21.00;45.90
7476;DHT22;3779;49.216;8.650;2022-11-15T07:16:39;21.00;46.30
7476;DHT22;3779;49.216;8.650;2022-11-15T07:19:44;21.10;46.80
7476;DHT22;3779;49.216;8.650;2022-11-15T07:22:48;20.90;45.60
7476;DHT22;3779;49.216;8.650;2022-11-15T07:25:52;20.80;46.30
7476;DHT22;3779;49.216;8.650;2022-11-15T07:28:57;20.90;47.10
7476;DHT22;3779;49.216;8.650;2022-11-15T07:32:01;20.90;46.50
7476;DHT22;3779;49.216;8.650;2022-11-15T07:35:06;21.00;46.80
7476;DHT22;3779;49.216;8.650;2022-11-15T07:38:11;21.00;46.60
7476;DHT22;3779;49.216;8.650;2022-11-15T07:41:41;21.10;46.80
7476;DHT22;3779;49.216;8.650;2022-11-15T07:44:47;21.10;47.20
7476;DHT22;3779;49.216;8.650;2022-11-15T07:47:51;21.10;46.80
7476;DHT22;3779;49.216;8.650;2022-11-15T07:50:56;21.20;46.70
7476;DHT22;3779;49.216;8.650;2022-11-15T07:54:01;21.20;46.50
7476;DHT22;3779;49.216;8.650;2022-11-15T07:57:06;21.10;46.80
7476;DHT22;3779;49.216;8.650;2022-11-15T08:00:11;21.10;46.90
7476;DHT22;3779;49.216;8.650;2022-11-15T08:03:16;21.10;47.10
7476;DHT22;3779;49.216;8.650;2022-11-15T08:06:21;21.20;47.40
7476;DHT22;3779;49.216;8.650;2022-11-15T08:09:25;21.20;47.50
7476;DHT22;3779;49.216;8.650;2022-11-15T08:12:30;21.20;47.50
7476;DHT22;3779;49.216;8.650;2022-11-15T08:15:36;21.10;47.60
7476;DHT22;3779;49.216;8.650;2022-11-15T08:18:40;21.20;47.90
7476;DHT22;3779;49.216;8.650;2022-11-15T08:21:45;21.10;47.90
7476;DHT22;3779;49.216;8.650;2022-11-15T08:24:49;21.10;48.10
7476;DHT22;3779;49.216;8.650;2022-11-15T08:27:55;21.20;48.50
7476;DHT22;3779;49.216;8.650;2022-11-15T08:31:01;21.20;48.40
7476;DHT22;3779;49.216;8.650;2022-11-15T08:34:05;21.10;49.00
7476;DHT22;3779;49.216;8.650;2022-11-15T08:37:10;21.20;48.80
7476;DHT22;3779;49.216;8.650;2022-11-15T08:40:14;21.20;48.50
7476;DHT22;3779;49.216;8.650;2022-11-15T08:43:18;21.20;48.50
7476;DHT22;3779;49.216;8.650;2022-11-15T08:46:23;21.20;48.50
7476;DHT22;3779;49.216;8.650;2022-11-15T08:49:27;21.20;48.20
7476;DHT22;3779;49.216;8.650;2022-11-15T08:52:31;21.20;48.40
7476;DHT22;3779;49.216;8.650;2022-11-15T08:55:37;21.20;48.40
7476;DHT22;3779;49.216;8.650;2022-11-15T08:58:41;21.20;48.60
7476;DHT22;3779;49.216;8.650;2022-11-15T09:01:47;21.10;48.50
7476;DHT22;3779;49.216;8.650;2022-11-15T09:04:51;21.20;48.70
7476;DHT22;3779;49.216;8.650;2022-11-15T09:07:55;21.20;49.00
7476;DHT22;3779;49.216;8.650;2022-11-15T09:11:03;21.20;48.90
7476;DHT22;3779;49.216;8.650;2022-11-15T09:14:10;21.20;49.30
7476;DHT22;3779;49.216;8.650;2022-11-15T09:17:15;21.30;49.50
7476;DHT22;3779;49.216;8.650;2022-11-15T09:20:19;21.20;49.50
7476;DHT22;3779;49.216;8.650;2022-11-15T09:23:25;21.30;49.30
7476;DHT22;3779;49.216;8.650;2022-11-15T09:26:30;21.30;49.30
7476;DHT22;3779;49.216;8.650;2022-11-15T09:29:34;21.30;49.10
7476;DHT22;3779;49.216;8.650;2022-11-15T09:32:38;21.30;49.10
7476;DHT22;3779;49.216;8.650;2022-11-15T09:35:43;21.30;48.30
7476;DHT22;3779;49.216;8.650;2022-11-15T09:38:48;21.10;48.00
7476;DHT22;3779;49.216;8.650;2022-11-15T09:42:02;21.10;48.30
7476;DHT22;3779;49.216;8.650;2022-11-15T09:51:59;20.90;48.90
7476;DHT22;3779;49.216;8.650;2022-11-15T09:54:48;20.90;49.30
7476;DHT22;3779;49.216;8.650;2022-11-15T09:58:36;20.90;49.70
7476;DHT22;3779;49.216;8.650;2022-11-15T10:00:51;21.00;49.80
7476;DHT22;3779;49.216;8.650;2022-11-15T10:03:40;21.10;49.70
7476;DHT22;3779;49.216;8.650;2022-11-15T10:06:27;21.30;49.50
7476;DHT22;3779;49.216;8.650;2022-11-15T10:09:15;21.30;49.40
7476;DHT22;3779;49.216;8.650;2022-11-15T10:12:02;21.30;49.20
7476;DHT22;3779;49.216;8.650;2022-11-15T10:14:50;21.30;49.10
7476;DHT22;3779;49.216;8.650;2022-11-15T10:20:59;21.40;50.00
7476;DHT22;3779;49.216;8.650;2022-11-15T10:23:45;21.40;49.70
7476;DHT22;3779;49.216;8.650;2022-11-15T10:26:31;21.40;49.30
7476;DHT22;3779;49.216;8.650;2022-11-15T10:29:21;21.40;49.30
7476;DHT22;3779;49.216;8.650;2022-11-15T10:32:07;21.40;49.60
7476;DHT22;3779;49.216;8.650;2022-11-15T10:34:53;21.40;49.50
7476;DHT22;3779;49.216;8.650;2022-11-15T10:37:39;21.40;49.50
7476;DHT22;3779;49.216;8.650;2022-11-15T10:40:25;21.40;49.60
7476;DHT22;3779;49.216;8.650;2022-11-15T10:43:17;21.40;49.60
7476;DHT22;3779;49.216;8.650;2022-11-15T10:46:22;21.40;50.00
7476;DHT22;3779;49.216;8.650;2022-11-15T10:57:51;21.50;50.30
7476;DHT22;3779;49.216;8.650;2022-11-15T11:00:37;21.50;49.70
7476;DHT22;3779;49.216;8.650;2022-11-15T11:03:35;21.50;49.80
7476;DHT22;3779;49.216;8.650;2022-11-15T11:06:21;21.50;50.00
7476;DHT22;3779;49.216;8.650;2022-11-15T11:12:30;21.50;50.30
7476;DHT22;3779;49.216;8.650;2022-11-15T11:15:17;21.40;50.50
7476;DHT22;3779;49.216;8.650;2022-11-15T11:18:07;21.50;49.90
7476;DHT22;3779;49.216;8.650;2022-11-15T11:21:08;21.50;49.90
7476;DHT22;3779;49.216;8.650;2022-11-15T11:24:05;21.50;50.20
7476;DHT22;3779;49.216;8.650;2022-11-15T11:27:05;21.50;50.30
7476;DHT22;3779;49.216;8.650;2022-11-15T11:30:11;21.50;50.50
7476;DHT22;3779;49.216;8.650;2022-11-15T11:33:21;21.50;50.60
7476;DHT22;3779;49.216;8.650;2022-11-15T11:36:22;21.50;50.80
7476;DHT22;3779;49.216;8.650;2022-11-15T11:39:36;21.50;50.70
7476;DHT22;3779;49.216;8.650;2022-11-15T11:48:57;21.50;50.60
7476;DHT22;3779;49.216;8.650;2022-11-15T11:52:02;21.50;50.40
7476;DHT22;3779;49.216;8.650;2022-11-15T11:58:17;21.50;50.10
7476;DHT22;3779;49.216;8.650;2022-11-15T12:07:02;21.50;49.90
7476;DHT22;3779;49.216;8.650;2022-11-15T12:09:59;21.50;50.20
7476;DHT22;3779;49.216;8.650;2022-11-15T12:13:02;21.50;50.00
7476;DHT22;3779;49.216;8.650;2022-11-15T12:16:17;21.20;49.80
7476;DHT22;3779;49.216;8.650;2022-11-15T12:19:04;21.50;50.30
7476;DHT22;3779;49.216;8.650;2022-11-15T12:22:12;21.50;49.90
7476;DHT22;3779;49.216;8.650;2022-11-15T12:25:05;21.50;50.30
7476;DHT22;3779;49.216;8.650;2022-11-15T12:30:56;21.50;51.10
7476;DHT22;3779;49.216;8.650;2022-11-15T12:33:45;21.50;51.20
7476;DHT22;3779;49.216;8.650;2022-11-15T12:36:45;21.50;51.00
7476;DHT22;3779;49.216;8.650;2022-11-15T12:46:03;21.50;51.30
7476;DHT22;3779;49.216;8.650;2022-11-15T12:48:53;21.50;51.20
7476;DHT22;3779;49.216;8.650;2022-11-15T12:57:30;21.60;51.40
7476;DHT22;3779;49.216;8.650;2022-11-15T13:03:23;21.60;51.70
7476;DHT22;3779;49.216;8.650;2022-11-15T13:06:34;21.60;51.70
7476;DHT22;3779;49.216;8.650;2022-11-15T13:21:20;21.60;51.70
7476;DHT22;3779;49.216;8.650;2022-11-15T13:24:26;21.60;51.30
7476;DHT22;3779;49.216;8.650;2022-11-15T13:27:18;21.60;51.00
7476;DHT22;3779;49.216;8.650;2022-11-15T13:30:05;21.60;51.30
7476;DHT22;3779;49.216;8.650;2022-11-15T13:32:51;21.60;51.20
7476;DHT22;3779;49.216;8.650;2022-11-15T13:35:42;21.60;51.50
7476;DHT22;3779;49.216;8.650;2022-11-15T13:38:33;21.60;51.50
7476;DHT22;3779;49.216;8.650;2022-11-15T13:41:26;21.70;52.30
7476;DHT22;3779;49.216;8.650;2022-11-15T13:44:37;21.70;51.60
7476;DHT22;3779;49.216;8.650;2022-11-15T13:47:26;21.70;51.70
7476;DHT22;3779;49.216;8.650;2022-11-15T13:50:15;21.70;51.60
7476;DHT22;3779;49.216;8.650;2022-11-15T13:53:02;21.80;51.40
7476;DHT22;3779;49.216;8.650;2022-11-15T13:55:49;21.70;51.30
7476;DHT22;3779;49.216;8.650;2022-11-15T13:58:38;21.70;51.60
7476;DHT22;3779;49.216;8.650;2022-11-15T14:01:26;21.60;51.60
7476;DHT22;3779;49.216;8.650;2022-11-15T14:04:19;21.60;51.10
7476;DHT22;3779;49.216;8.650;2022-11-15T14:07:14;21.60;51.40
7476;DHT22;3779;49.216;8.650;2022-11-15T14:13:29;21.60;51.10
7476;DHT22;3779;49.216;8.650;2022-11-15T14:16:20;21.60;51.20
7476;DHT22;3779;49.216;8.650;2022-11-15T14:19:11;21.60;51.10
7476;DHT22;3779;49.216;8.650;2022-11-15T14:22:22;21.60;51.00
7476;DHT22;3779;49.216;8.650;2022-11-15T14:25:18;21.50;51.40
7476;DHT22;3779;49.216;8.650;2022-11-15T14:31:12;21.50;51.90
7476;DHT22;3779;49.216;8.650;2022-11-15T14:34:00;21.60;51.30
7476;DHT22;3779;49.216;8.650;2022-11-15T14:36:46;21.60;51.20
7476;DHT22;3779;49.216;8.650;2022-11-15T14:39:32;21.60;51.10
7476;DHT22;3779;49.216;8.650;2022-11-15T14:42:18;21.60;51.20
7476;DHT22;3779;49.216;8.650;2022-11-15T14:45:21;21.60;51.30
7476;DHT22;3779;49.216;8.650;2022-11-15T14:48:07;21.60;51.40
7476;DHT22;3779;49.216;8.650;2022-11-15T14:50:53;21.60;51.10
7476;DHT22;3779;49.216;8.650;2022-11-15T14:53:40;21.60;50.90
7476;DHT22;3779;49.216;8.650;2022-11-15T14:56:26;21.60;51.10
7476;DHT22;3779;49.216;8.650;2022-11-15T14:59:12;21.60;51.30
7476;DHT22;3779;49.216;8.650;2022-11-15T15:01:58;21.70;51.30
7476;DHT22;3779;49.216;8.650;2022-11-15T15:04:48;21.70;50.80
7476;DHT22;3779;49.216;8.650;2022-11-15T15:07:33;21.70;50.60
7476;DHT22;3779;49.216;8.650;2022-11-15T15:10:20;21.60;50.20
7476;DHT22;3779;49.216;8.650;2022-11-15T15:13:19;21.60;50.40
7476;DHT22;3779;49.216;8.650;2022-11-15T15:16:05;21.60;50.20
7476;DHT22;3779;49.216;8.650;2022-11-15T15:18:52;21.60;50.00
7476;DHT22;3779;49.216;8.650;2022-11-15T15:21:38;21.50;49.90
7476;DHT22;3779;49.216;8.650;2022-11-15T15:24:24;21.50;50.10
7476;DHT22;3779;49.216;8.650;2022-11-15T15:27:10;21.50;50.00
7476;DHT22;3779;49.216;8.650;2022-11-15T15:29:56;21.50;50.30
7476;DHT22;3779;49.216;8.650;2022-11-15T15:32:42;21.60;50.10
7476;DHT22;3779;49.216;8.650;2022-11-15T15:35:30;21.60;50.10
7476;DHT22;3779;49.216;8.650;2022-11-15T15:38:17;21.60;50.20
7476;DHT22;3779;49.216;8.650;2022-11-15T15:41:03;21.60;50.30
7476;DHT22;3779;49.216;8.650;2022-11-15T15:43:49;21.60;50.10
7476;DHT22;3779;49.216;8.650;2022-11-15T15:46:35;21.60;49.60
7476;DHT22;3779;49.216;8.650;2022-11-15T15:49:21;21.50;50.50
7476;DHT22;3779;49.216;8.650;2022-11-15T15:52:06;21.60;50.40
7476;DHT22;3779;49.216;8.650;2022-11-15T15:54:52;21.60;50.10
7476;DHT22;3779;49.216;8.650;2022-11-15T15:57:38;21.60;49.70
7476;DHT22;3779;49.216;8.650;2022-11-15T16:00:25;21.60;49.70
7476;DHT22;3779;49.216;8.650;2022-11-15T16:03:11;21.50;49.70
7476;DHT22;3779;49.216;8.650;2022-11-15T16:05:57;21.50;49.80
7476;DHT22;3779;49.216;8.650;2022-11-15T16:08:43;21.50;49.60
7476;DHT22;3779;49.216;8.650;2022-11-15T16:11:29;21.50;49.90
7476;DHT22;3779;49.216;8.650;2022-11-15T16:14:15;21.40;49.30
7476;DHT22;3779;49.216;8.650;2022-11-15T16:17:01;21.40;49.30
7476;DHT22;3779;49.216;8.650;2022-11-15T16:19:47;21.30;49.50
7476;DHT22;3779;49.216;8.650;2022-11-15T16:22:33;21.30;50.70
7476;DHT22;3779;49.216;8.650;2022-11-15T16:25:19;21.40;50.90
7476;DHT22;3779;49.216;8.650;2022-11-15T16:28:11;21.50;50.10
7476;DHT22;3779;49.216;8.650;2022-11-15T16:31:03;21.50;50.10
7476;DHT22;3779;49.216;8.650;2022-11-15T16:33:49;21.50;50.00
7476;DHT22;3779;49.216;8.650;2022-11-15T16:36:35;21.50;49.60
7476;DHT22;3779;49.216;8.650;2022-11-15T16:39:21;21.50;50.00
7476;DHT22;3779;49.216;8.650;2022-11-15T16:42:08;21.50;49.50
7476;DHT22;3779;49.216;8.650;2022-11-15T16:44:53;21.50;49.70
7476;DHT22;3779;49.216;8.650;2022-11-15T16:47:39;21.50;49.60
7476;DHT22;3779;49.216;8.650;2022-11-15T16:50:29;21.50;49.60
7476;DHT22;3779;49.216;8.650;2022-11-15T16:53:15;21.50;49.50
7476;DHT22;3779;49.216;8.650;2022-11-15T16:56:01;21.50;49.50
7476;DHT22;3779;49.216;8.650;2022-11-15T16:58:47;21.50;49.40
7476;DHT22;3779;49.216;8.650;2022-11-15T17:01:35;21.50;49.50
7476;DHT22;3779;49.216;8.650;2022-11-15T17:04:21;21.50;50.30
7476;DHT22;3779;49.216;8.650;2022-11-15T17:07:07;21.50;49.50
7476;DHT22;3779;49.216;8.650;2022-11-15T17:09:53;21.50;49.50
7476;DHT22;3779;49.216;8.650;2022-11-15T17:12:39;21.50;49.20
7476;DHT22;3779;49.216;8.650;2022-11-15T17:15:25;21.50;49.60
7476;DHT22;3779;49.216;8.650;2022-11-15T17:18:11;21.50;48.90
7476;DHT22;3779;49.216;8.650;2022-11-15T17:21:15;21.50;49.10
7476;DHT22;3779;49.216;8.650;2022-11-15T17:24:01;21.50;49.80
7476;DHT22;3779;49.216;8.650;2022-11-15T17:26:47;21.50;49.20
7476;DHT22;3779;49.216;8.650;2022-11-15T17:29:33;21.50;49.40
7476;DHT22;3779;49.216;8.650;2022-11-15T17:32:19;21.50;49.20
7476;DHT22;3779;49.216;8.650;2022-11-15T17:35:05;21.50;50.60
7476;DHT22;3779;49.216;8.650;2022-11-15T17:37:51;21.50;49.10
7476;DHT22;3779;49.216;8.650;2022-11-15T17:40:37;21.50;49.40
7476;DHT22;3779;49.216;8.650;2022-11-15T17:43:23;21.50;49.20
7476;DHT22;3779;49.216;8.650;2022-11-15T17:46:14;21.50;49.50
7476;DHT22;3779;49.216;8.650;2022-11-15T17:49:00;21.50;49.70
7476;DHT22;3779;49.216;8.650;2022-11-15T17:51:46;21.50;49.70
7476;DHT22;3779;49.216;8.650;2022-11-15T17:54:32;21.50;49.50
7476;DHT22;3779;49.216;8.650;2022-11-15T17:57:18;21.50;49.30
7476;DHT22;3779;49.216;8.650;2022-11-15T18:00:04;21.50;49.40
7476;DHT22;3779;49.216;8.650;2022-11-15T18:02:51;21.50;49.40
7476;DHT22;3779;49.216;8.650;2022-11-15T18:05:37;21.50;49.20
7476;DHT22;3779;49.216;8.650;2022-11-15T18:08:22;21.50;49.30
7476;DHT22;3779;49.216;8.650;2022-11-15T18:11:23;21.50;48.80
7476;DHT22;3779;49.216;8.650;2022-11-15T18:14:12;21.50;49.80
7476;DHT22;3779;49.216;8.650;2022-11-15T18:16:58;21.50;49.10
7476;DHT22;3779;49.216;8.650;2022-11-15T18:19:44;21.50;49.40
7476;DHT22;3779;49.216;8.650;2022-11-15T18:22:30;21.50;49.30
7476;DHT22;3779;49.216;8.650;2022-11-15T18:25:16;21.50;49.30
7476;DHT22;3779;49.216;8.650;2022-11-15T18:28:02;21.50;49.20
7476;DHT22;3779;49.216;8.650;2022-11-15T18:30:48;21.40;49.20
7476;DHT22;3779;49.216;8.650;2022-11-15T18:33:34;21.50;49.40
7476;DHT22;3779;49.216;8.650;2022-11-15T18:36:22;21.50;49.30
7476;DHT22;3779;49.216;8.650;2022-11-15T18:39:09;21.50;49.40
7476;DHT22;3779;49.216;8.650;2022-11-15T18:42:00;21.50;49.40
7476;DHT22;3779;49.216;8.650;2022-11-15T18:44:46;21.50;49.30
7476;DHT22;3779;49.216;8.650;2022-11-15T18:47:32;21.50;49.60
7476;DHT22;3779;49.216;8.650;2022-11-15T18:50:18;21.50;49.80
7476;DHT22;3779;49.216;8.650;2022-11-15T18:53:04;21.50;49.90
7476;DHT22;3779;49.216;8.650;2022-11-15T18:55:50;21.50;49.80
7476;DHT22;3779;49.216;8.650;2022-11-15T18:58:38;21.50;49.70
7476;DHT22;3779;49.216;8.650;2022-11-15T19:01:35;21.50;49.90
7476;DHT22;3779;49.216;8.650;2022-11-15T19:04:22;21.50;50.40
7476;DHT22;3779;49.216;8.650;2022-11-15T19:07:08;21.50;49.40
7476;DHT22;3779;49.216;8.650;2022-11-15T19:09:54;21.50;49.90
7476;DHT22;3779;49.216;8.650;2022-11-15T19:12:40;21.50;50.30
7476;DHT22;3779;49.216;8.650;2022-11-15T19:15:26;21.50;49.90
7476;DHT22;3779;49.216;8.650;2022-11-15T19:18:13;21.50;49.00
7476;DHT22;3779;49.216;8.650;2022-11-15T19:21:05;21.50;49.60
7476;DHT22;3779;49.216;8.650;2022-11-15T19:23:51;21.40;49.80
7476;DHT22;3779;49.216;8.650;2022-11-15T19:26:40;21.50;49.10
7476;DHT22;3779;49.216;8.650;2022-11-15T19:29:26;21.40;49.20
7476;DHT22;3779;49.216;8.650;2022-11-15T19:32:12;21.40;49.20
7476;DHT22;3779;49.216;8.650;2022-11-15T19:34:58;21.40;49.60
7476;DHT22;3779;49.216;8.650;2022-11-15T19:37:44;21.40;49.80
7476;DHT22;3779;49.216;8.650;2022-11-15T19:40:32;21.40;49.30
7476;DHT22;3779;49.216;8.650;2022-11-15T19:43:18;21.40;49.50
7476;DHT22;3779;49.216;8.650;2022-11-15T19:46:05;21.40;49.50
7476;DHT22;3779;49.216;8.650;2022-11-15T19:48:52;21.40;49.30
7476;DHT22;3779;49.216;8.650;2022-11-15T19:51:38;21.40;49.30
7476;DHT22;3779;49.216;8.650;2022-11-15T19:54:26;21.40;49.00
7476;DHT22;3779;49.216;8.650;2022-11-15T19:57:12;21.40;49.50
7476;DHT22;3779;49.216;8.650;2022-11-15T19:59:58;21.40;49.40
7476;DHT22;3779;49.216;8.650;2022-11-15T20:02:44;21.40;49.50
7476;DHT22;3779;49.216;8.650;2022-11-15T20:05:30;21.40;49.60
7476;DHT22;3779;49.216;8.650;2022-11-15T20:08:16;21.40;49.40
7476;DHT22;3779;49.216;8.650;2022-11-15T20:11:03;21.40;49.50
7476;DHT22;3779;49.216;8.650;2022-11-15T20:13:49;21.40;50.00
7476;DHT22;3779;49.216;8.650;2022-11-15T20:16:35;21.40;49.70
7476;DHT22;3779;49.216;8.650;2022-11-15T20:19:21;21.50;50.20
7476;DHT22;3779;49.216;8.650;2022-11-15T20:22:07;21.40;49.90
7476;DHT22;3779;49.216;8.650;2022-11-15T20:24:53;21.50;50.00
7476;DHT22;3779;49.216;8.650;2022-11-15T20:27:39;21.50;50.10
7476;DHT22;3779;49.216;8.650;2022-11-15T20:30:25;21.50;50.30
7476;DHT22;3779;49.216;8.650;2022-11-15T20:33:12;21.50;50.50
7476;DHT22;3779;49.216;8.650;2022-11-15T20:36:05;21.50;50.40
7476;DHT22;3779;49.216;8.650;2022-11-15T20:38:56;21.50;50.60
7476;DHT22;3779;49.216;8.650;2022-11-15T20:41:42;21.50;50.50
7476;DHT22;3779;49.216;8.650;2022-11-15T20:44:28;21.50;50.20
7476;DHT22;3779;49.216;8.650;2022-11-15T20:47:14;21.50;50.20
7476;DHT22;3779;49.216;8.650;2022-11-15T20:50:00;21.50;50.20